createdAt,value
2023-04-16T00:00:13.023Z,518.5000
2023-04-16T00:01:15.368Z,518.8461
2023-04-16T00:02:17.824Z,520.6923
2023-04-16T00:03:20.245Z,520.4615
2023-04-16T00:04:22.389Z,519.5833
2023-04-16T00:05:24.685Z,518.0769
2023-04-16T00:06:27.030Z,514.5385
2023-04-16T00:07:29.349Z,514.0769
2023-04-16T00:08:31.694Z,513.1539
2023-04-16T00:09:34.019Z,510.6154
2023-04-16T00:10:36.337Z,510.1538
2023-04-16T00:11:38.662Z,512.8461
2023-04-16T00:12:40.992Z,512.3846
2023-04-16T00:13:43.326Z,510.7692
2023-04-16T00:14:45.663Z,510.8462
2023-04-16T00:15:47.982Z,507.2308
2023-04-16T00:16:50.420Z,509.0769
2023-04-16T00:17:52.773Z,509.6667
2023-04-16T00:18:54.992Z,508.7692
2023-04-16T00:19:57.315Z,507.1538
2023-04-16T00:20:59.688Z,506.2308
2023-04-16T00:22:01.966Z,506.1538
2023-04-16T00:23:04.288Z,505.4615
2023-04-16T00:24:06.675Z,503.9231
2023-04-16T00:25:08.976Z,505.8462
2023-04-16T00:26:11.344Z,507.0000
2023-04-16T00:27:13.626Z,510.6154
2023-04-16T00:28:15.970Z,509.9231
2023-04-16T00:29:18.279Z,506.8462
2023-04-16T00:30:20.616Z,504.0769
2023-04-16T00:31:23.063Z,503.7692
2023-04-16T00:32:25.307Z,504.8462
2023-04-16T00:33:27.708Z,506.1538
2023-04-16T00:34:29.959Z,505.9231
2023-04-16T00:35:32.332Z,504.7692
2023-04-16T00:36:34.591Z,503.6154
2023-04-16T00:37:36.953Z,503.9231
2023-04-16T00:38:39.293Z,503.3077
2023-04-16T00:39:41.580Z,503.6154
2023-04-16T00:40:43.925Z,506.0000
2023-04-16T00:41:46.263Z,507.6154
2023-04-16T00:42:48.628Z,510.6923
2023-04-16T00:43:50.936Z,509.6923
2023-04-16T00:44:53.260Z,509.0000
2023-04-16T00:45:55.658Z,509.6923
2023-04-16T00:46:57.934Z,509.8462
2023-04-16T00:48:00.669Z,511.0000
2023-04-16T00:49:02.624Z,511.3333
2023-04-16T00:50:04.950Z,510.6154
2023-04-16T00:51:07.278Z,510.7692
2023-04-16T00:52:09.638Z,510.0769
2023-04-16T00:53:11.937Z,509.9231
2023-04-16T00:54:14.254Z,508.6154
2023-04-16T00:55:16.602Z,507.7692
2023-04-16T00:56:18.933Z,508.0000
2023-04-16T00:57:21.269Z,507.0000
2023-04-16T00:58:23.653Z,505.9231
2023-04-16T00:59:25.900Z,503.8462
2023-04-16T01:00:28.266Z,504.2308
2023-04-16T01:01:30.638Z,504.9231
2023-04-16T01:02:32.991Z,508.4615
2023-04-16T01:03:35.471Z,508.1667
2023-04-16T01:04:37.636Z,511.0833
2023-04-16T01:05:39.932Z,508.6667
2023-04-16T01:06:42.298Z,509.3333
2023-04-16T01:07:44.584Z,508.9231
2023-04-16T01:08:46.894Z,506.2308
2023-04-16T01:09:49.248Z,502.7692
2023-04-16T01:10:51.595Z,505.0000
2023-04-16T01:11:53.891Z,512.0000
2023-04-16T01:12:56.234Z,514.8461
2023-04-16T01:13:58.606Z,517.9231
2023-04-16T01:15:00.903Z,516.3077
2023-04-16T01:16:03.246Z,517.6154
2023-04-16T01:17:05.630Z,516.9231
2023-04-16T01:18:07.917Z,516.3077
2023-04-16T01:19:10.353Z,517.2308
2023-04-16T01:20:12.534Z,516.9231
2023-04-16T01:21:14.928Z,516.0000
2023-04-16T01:22:17.211Z,520.0000
2023-04-16T01:23:19.672Z,522.4615
2023-04-16T01:24:21.872Z,523.2308
2023-04-16T01:25:24.227Z,523.6154
2023-04-16T01:26:26.602Z,522.9231
2023-04-16T01:27:28.879Z,520.1539
2023-04-16T01:28:31.228Z,520.0769
2023-04-16T01:29:33.638Z,519.6154
2023-04-16T01:30:35.899Z,520.2308
2023-04-16T01:31:38.340Z,521.1667
2023-04-16T01:32:40.600Z,519.9231
2023-04-16T01:33:42.858Z,522.4167
2023-04-16T01:34:45.254Z,523.9231
2023-04-16T01:35:47.613Z,526.0000
2023-04-16T01:36:49.868Z,525.5385
2023-04-16T01:37:52.213Z,526.5385
2023-04-16T01:38:54.558Z,527.8461
2023-04-16T01:39:56.863Z,526.8461
2023-04-16T01:40:59.231Z,524.4615
2023-04-16T01:42:01.547Z,523.6923
2023-04-16T01:43:03.891Z,523.7692
2023-04-16T01:44:06.230Z,524.4615
2023-04-16T01:45:08.519Z,524.2308
2023-04-16T01:46:10.895Z,523.0000
2023-04-16T01:47:13.235Z,524.4615
2023-04-16T01:48:15.508Z,526.0769
2023-04-16T01:49:17.897Z,521.1539
2023-04-16T01:50:20.201Z,517.9231
2023-04-16T01:51:22.467Z,515.4615
2023-04-16T01:52:24.815Z,516.6154
2023-04-16T01:53:27.178Z,518.6154
2023-04-16T01:54:29.466Z,519.2308
2023-04-16T01:55:31.828Z,516.3846
2023-04-16T01:56:34.102Z,514.0769
2023-04-16T01:57:36.470Z,515.7692
2023-04-16T01:58:38.944Z,517.3846
2023-04-16T01:59:41.153Z,515.0000
2023-04-16T02:00:43.492Z,513.3077
2023-04-16T02:01:45.848Z,514.6154
2023-04-16T02:02:48.288Z,512.6154
2023-04-16T02:03:50.587Z,514.0833
2023-04-16T02:04:52.780Z,514.5833
2023-04-16T02:05:55.081Z,516.3077
2023-04-16T02:06:57.442Z,514.3077
2023-04-16T02:07:59.800Z,513.6154
2023-04-16T02:09:02.162Z,514.1539
2023-04-16T02:10:04.426Z,514.5385
2023-04-16T02:11:06.800Z,512.9231
2023-04-16T02:12:09.081Z,511.0769
2023-04-16T02:13:11.414Z,510.3846
2023-04-16T02:14:13.771Z,511.7692
2023-04-16T02:15:16.033Z,512.6154
2023-04-16T02:16:18.446Z,513.1539
2023-04-16T02:17:20.809Z,513.8461
2023-04-16T02:18:23.061Z,513.0000
2023-04-16T02:19:25.441Z,510.4615
2023-04-16T02:20:27.790Z,510.5385
2023-04-16T02:21:30.118Z,511.0000
2023-04-16T02:22:32.385Z,510.2308
2023-04-16T02:23:34.748Z,510.9231
2023-04-16T02:24:37.137Z,508.8462
2023-04-16T02:25:39.377Z,510.0769
2023-04-16T02:26:41.705Z,512.7692
2023-04-16T02:27:44.037Z,513.9231
2023-04-16T02:28:46.416Z,512.3077
2023-04-16T02:29:48.723Z,511.0769
2023-04-16T02:30:51.058Z,510.2308
2023-04-16T02:31:53.475Z,512.1539
2023-04-16T02:32:55.823Z,514.8333
2023-04-16T02:33:58.064Z,515.8333
2023-04-16T02:35:00.387Z,514.3077
2023-04-16T02:36:02.734Z,512.7692
2023-04-16T02:37:05.062Z,513.9231
2023-04-16T02:38:07.415Z,515.3077
2023-04-16T02:39:09.879Z,515.3077
2023-04-16T02:40:12.099Z,513.3333
2023-04-16T02:41:14.596Z,511.5385
2023-04-16T02:42:16.891Z,512.4167
2023-04-16T02:43:19.137Z,514.3077
2023-04-16T02:44:21.466Z,514.0000
2023-04-16T02:45:23.845Z,512.4615
2023-04-16T02:46:26.121Z,509.2308
2023-04-16T02:47:28.495Z,509.0000
2023-04-16T02:48:30.786Z,511.1538
2023-04-16T02:49:33.166Z,512.0769
2023-04-16T02:50:35.435Z,513.4615
2023-04-16T02:51:37.780Z,514.0769
2023-04-16T02:52:40.239Z,515.4615
2023-04-16T02:53:42.462Z,516.5000
2023-04-16T02:54:44.764Z,514.2308
2023-04-16T02:55:47.230Z,514.4615
2023-04-16T02:56:49.393Z,513.9167
2023-04-16T02:57:51.775Z,512.3077
2023-04-16T02:58:54.051Z,510.6154
2023-04-16T02:59:56.418Z,511.3846
2023-04-16T03:00:58.763Z,513.9231
2023-04-16T03:02:01.121Z,514.6154
2023-04-16T03:03:03.500Z,515.3846
2023-04-16T03:04:05.777Z,514.1667
2023-04-16T03:05:08.035Z,514.3846
2023-04-16T03:06:10.365Z,515.4615
2023-04-16T03:07:12.730Z,516.2308
2023-04-16T03:08:15.117Z,517.2308
2023-04-16T03:09:17.394Z,515.7692
2023-04-16T03:10:19.688Z,514.0000
2023-04-16T03:11:22.067Z,514.7692
2023-04-16T03:12:24.428Z,513.6923
2023-04-16T03:13:26.778Z,511.0000
2023-04-16T03:14:29.011Z,508.3846
2023-04-16T03:15:31.518Z,507.0000
2023-04-16T03:16:33.697Z,509.0769
2023-04-16T03:17:36.041Z,511.3846
2023-04-16T03:18:38.410Z,514.5000
2023-04-16T03:19:40.836Z,513.6154
2023-04-16T03:20:42.966Z,511.5000
2023-04-16T03:21:45.322Z,509.2308
2023-04-16T03:22:47.664Z,507.9231
2023-04-16T03:23:49.986Z,510.9231
2023-04-16T03:24:52.337Z,513.1539
2023-04-16T03:25:54.739Z,512.1539
2023-04-16T03:26:56.990Z,512.2308
2023-04-16T03:27:59.292Z,511.7692
2023-04-16T03:29:01.688Z,512.7692
2023-04-16T03:30:03.950Z,513.7500
2023-04-16T03:31:06.366Z,520.0000
2023-04-16T03:32:08.660Z,520.6667
2023-04-16T03:33:10.998Z,520.3846
2023-04-16T03:34:13.347Z,517.1539
2023-04-16T03:35:15.579Z,515.3846
2023-04-16T03:36:17.977Z,514.0000
2023-04-16T03:37:20.330Z,512.6154
2023-04-16T03:38:22.642Z,510.5385
2023-04-16T03:39:25.044Z,512.4615
2023-04-16T03:40:27.341Z,512.0000
2023-04-16T03:41:29.662Z,511.7692
2023-04-16T03:42:31.905Z,510.8462
2023-04-16T03:43:34.321Z,511.1538
2023-04-16T03:44:36.616Z,511.7692
2023-04-16T03:45:38.903Z,512.3077
2023-04-16T03:46:41.294Z,513.2308
2023-04-16T03:47:43.666Z,513.6667
2023-04-16T03:48:45.866Z,512.5385
2023-04-16T03:49:48.211Z,507.8462
2023-04-16T03:50:50.550Z,506.6154
2023-04-16T03:51:52.872Z,509.3846
2023-04-16T03:52:55.160Z,508.6154
2023-04-16T03:53:57.524Z,507.1538
2023-04-16T03:54:59.839Z,507.4615
2023-04-16T03:56:02.155Z,510.1538
2023-04-16T03:57:04.513Z,510.9231
2023-04-16T03:58:06.843Z,512.6923
2023-04-16T03:59:09.387Z,515.0000
2023-04-16T04:00:11.544Z,518.9167
2023-04-16T04:01:13.802Z,520.6154
2023-04-16T04:02:16.217Z,523.0769
2023-04-16T04:03:18.764Z,521.3077
2023-04-16T04:04:20.891Z,520.0833
2023-04-16T04:05:23.186Z,520.3077
2023-04-16T04:06:25.522Z,517.0769
2023-04-16T04:07:27.861Z,516.6923
2023-04-16T04:08:30.124Z,516.3846
2023-04-16T04:09:32.528Z,516.0000
2023-04-16T04:10:34.854Z,518.1539
2023-04-16T04:11:37.780Z,517.3846
2023-04-16T04:12:39.452Z,516.0000
2023-04-16T04:13:41.810Z,513.3077
2023-04-16T04:14:44.100Z,513.7692
2023-04-16T04:15:46.452Z,513.4615
2023-04-16T04:16:48.825Z,512.6154
2023-04-16T04:17:51.120Z,512.9231
2023-04-16T04:18:53.436Z,513.0000
2023-04-16T04:20:58.170Z,514.1667
2023-04-16T04:22:00.471Z,514.1539
2023-04-16T04:23:02.920Z,513.0000
2023-04-16T04:24:05.171Z,514.3846
2023-04-16T04:25:07.434Z,516.6154
2023-04-16T04:26:09.830Z,514.9231
2023-04-16T04:27:12.141Z,514.1539
2023-04-16T04:28:14.544Z,515.5385
2023-04-16T04:29:16.748Z,516.7692
2023-04-16T04:30:19.104Z,514.4615
2023-04-16T04:31:21.459Z,513.0769
2023-04-16T04:32:23.755Z,510.6154
2023-04-16T04:33:26.043Z,512.2308
2023-04-16T04:34:28.373Z,513.0000
2023-04-16T04:35:30.762Z,515.4615
2023-04-16T04:36:33.062Z,517.1539
2023-04-16T04:37:35.371Z,516.6154
2023-04-16T04:38:37.758Z,515.0769
2023-04-16T04:39:40.064Z,514.0769
2023-04-16T04:40:42.378Z,512.3846
2023-04-16T04:41:44.751Z,512.2308
2023-04-16T04:42:46.997Z,513.6923
2023-04-16T04:43:49.360Z,516.5385
2023-04-16T04:44:51.678Z,519.6923
2023-04-16T04:45:54.096Z,520.1539
2023-04-16T04:46:56.390Z,520.1539
2023-04-16T04:47:58.740Z,521.2308
2023-04-16T04:49:01.087Z,523.7692
2023-04-16T04:50:03.453Z,521.2308
2023-04-16T04:51:05.866Z,518.0769
2023-04-16T04:52:08.068Z,517.3846
2023-04-16T04:53:10.345Z,517.7692
2023-04-16T04:54:12.700Z,519.5385
2023-04-16T04:55:15.053Z,520.6923
2023-04-16T04:56:17.384Z,515.6923
2023-04-16T04:57:19.729Z,512.6154
2023-04-16T04:58:22.223Z,510.7692
2023-04-16T04:59:24.371Z,510.7500
2023-04-16T05:00:26.721Z,509.1538
2023-04-16T05:01:29.053Z,509.2308
2023-04-16T05:02:31.508Z,510.2500
2023-04-16T05:03:33.833Z,511.3077
2023-04-16T05:04:36.135Z,511.0833
2023-04-16T05:05:38.367Z,512.0769
2023-04-16T05:06:40.733Z,514.0000
2023-04-16T05:07:43.060Z,515.0000
2023-04-16T05:08:45.353Z,514.9231
2023-04-16T05:09:47.681Z,513.4615
2023-04-16T05:10:50.065Z,513.8461
2023-04-16T05:11:52.357Z,515.0000
2023-04-16T05:12:54.702Z,515.0769
2023-04-16T05:13:56.988Z,514.0769
2023-04-16T05:14:59.350Z,513.6154
2023-04-16T05:16:01.786Z,513.9231
2023-04-16T05:17:04.157Z,515.8461
2023-04-16T05:18:06.431Z,516.9167
2023-04-16T05:19:09.025Z,516.1539
2023-04-16T05:20:11.026Z,516.4167
2023-04-16T05:21:13.401Z,516.0769
2023-04-16T05:22:15.699Z,514.3846
2023-04-16T05:23:17.996Z,513.3846
2023-04-16T05:24:20.369Z,511.3077
2023-04-16T05:25:22.741Z,511.4615
2023-04-16T05:26:25.041Z,511.8462
2023-04-16T05:27:27.336Z,510.0000
2023-04-16T05:28:29.662Z,511.4615
2023-04-16T05:29:31.992Z,510.7692
2023-04-16T05:30:34.357Z,512.0769
2023-04-16T05:31:36.712Z,522.3077
2023-04-16T05:32:39.024Z,522.0769
2023-04-16T05:33:41.380Z,522.9231
2023-04-16T05:34:43.641Z,533.8461
2023-04-16T05:35:45.954Z,536.7692
2023-04-16T05:36:48.334Z,544.4615
2023-04-16T05:37:50.647Z,542.7692
2023-04-16T05:38:53.002Z,540.6923
2023-04-16T05:39:55.316Z,534.2308
2023-04-16T05:40:57.638Z,534.4615
2023-04-16T05:41:59.994Z,536.0769
2023-04-16T05:43:02.305Z,534.0769
2023-04-16T05:44:04.729Z,531.4615
2023-04-16T05:45:06.988Z,529.6923
2023-04-16T05:46:09.333Z,529.8461
2023-04-16T05:47:11.689Z,531.0769
2023-04-16T05:48:13.964Z,531.8461
2023-04-16T05:49:16.318Z,530.9231
2023-04-16T05:50:18.641Z,526.5385
2023-04-16T05:51:20.973Z,524.3077
2023-04-16T05:52:23.348Z,523.3077
2023-04-16T05:53:25.688Z,522.3077
2023-04-16T05:54:27.976Z,522.7692
2023-04-16T05:55:30.319Z,523.5385
2023-04-16T05:56:32.638Z,526.0769
2023-04-16T05:57:34.981Z,529.4615
2023-04-16T05:58:37.319Z,527.1539
2023-04-16T05:59:39.673Z,523.9231
2023-04-16T06:00:41.997Z,526.3846
2023-04-16T06:01:44.301Z,529.3846
2023-04-16T06:02:46.824Z,529.0000
2023-04-16T06:03:49.132Z,536.5833
2023-04-16T06:04:51.319Z,537.2308
2023-04-16T06:05:53.687Z,537.4615
2023-04-16T06:06:56.002Z,538.6923
2023-04-16T06:07:58.360Z,537.6923
2023-04-16T06:09:00.637Z,536.6154
2023-04-16T06:10:03.011Z,536.2308
2023-04-16T06:11:05.379Z,535.0769
2023-04-16T06:12:07.659Z,534.6154
2023-04-16T06:13:09.965Z,539.9231
2023-04-16T06:14:12.329Z,540.9231
2023-04-16T06:15:14.641Z,535.1539
2023-04-16T06:16:17.012Z,534.4615
2023-04-16T06:17:19.310Z,531.4615
2023-04-16T06:18:21.654Z,528.0769
2023-04-16T06:19:23.989Z,531.1539
2023-04-16T06:20:26.337Z,533.8461
2023-04-16T06:21:28.694Z,532.0769
2023-04-16T06:22:31.001Z,533.6154
2023-04-16T06:23:33.568Z,535.3077
2023-04-16T06:24:35.655Z,534.6667
2023-04-16T06:25:37.974Z,533.6154
2023-04-16T06:26:40.329Z,534.3846
2023-04-16T06:27:42.661Z,535.0000
2023-04-16T06:28:44.977Z,535.4615
2023-04-16T06:29:47.324Z,532.3846
2023-04-16T06:30:49.630Z,528.6923
2023-04-16T06:31:52.036Z,527.9231
2023-04-16T06:32:54.352Z,525.0000
2023-04-16T06:33:56.633Z,523.0833
2023-04-16T06:34:58.977Z,522.5385
2023-04-16T06:36:01.315Z,520.9231
2023-04-16T06:37:03.615Z,525.5385
2023-04-16T06:38:05.948Z,532.2308
2023-04-16T06:39:08.685Z,536.4615
2023-04-16T06:40:10.615Z,537.8333
2023-04-16T06:41:12.956Z,538.3846
2023-04-16T06:42:15.272Z,540.6923
2023-04-16T06:43:17.605Z,541.7692
2023-04-16T06:44:19.984Z,543.6923
2023-04-16T06:45:22.355Z,548.9231
2023-04-16T06:46:24.672Z,549.5385
2023-04-16T06:47:27.030Z,548.6154
2023-04-16T06:48:29.322Z,548.3077
2023-04-16T06:49:31.660Z,548.1539
2023-04-16T06:50:33.998Z,546.4615
2023-04-16T06:51:36.342Z,548.3077
2023-04-16T06:52:38.665Z,547.4615
2023-04-16T06:53:40.981Z,547.1539
2023-04-16T06:54:43.353Z,548.3846
2023-04-16T06:55:45.648Z,547.4615
2023-04-16T06:56:47.998Z,547.0000
2023-04-16T06:57:50.310Z,546.0769
2023-04-16T06:58:52.657Z,547.9231
2023-04-16T06:59:54.976Z,551.6154
2023-04-16T07:00:57.323Z,553.2308
2023-04-16T07:01:59.687Z,550.8461
2023-04-16T07:03:02.296Z,551.1539
2023-04-16T07:04:04.504Z,551.0000
2023-04-16T07:05:06.632Z,550.1667
2023-04-16T07:06:08.970Z,549.3077
2023-04-16T07:07:11.337Z,550.7692
2023-04-16T07:08:13.610Z,552.0000
2023-04-16T07:09:15.952Z,552.3846
2023-04-16T07:10:18.292Z,552.5385
2023-04-16T07:11:20.609Z,552.0000
2023-04-16T07:12:23.152Z,550.4615
2023-04-16T07:13:25.275Z,551.0769
2023-04-16T07:14:27.615Z,555.0769
2023-04-16T07:15:29.954Z,553.7692
2023-04-16T07:16:32.285Z,553.8461
2023-04-16T07:17:34.661Z,555.2308
2023-04-16T07:18:36.968Z,554.3077
2023-04-16T07:19:39.290Z,552.2308
2023-04-16T07:20:41.624Z,549.6923
2023-04-16T07:21:43.924Z,547.8461
2023-04-16T07:22:46.270Z,548.5385
2023-04-16T07:23:48.594Z,554.4615
2023-04-16T07:24:50.978Z,553.6154
2023-04-16T07:25:53.263Z,551.6923
2023-04-16T07:26:55.600Z,551.2308
2023-04-16T07:27:57.919Z,546.3077
2023-04-16T07:29:00.250Z,544.4615
2023-04-16T07:30:02.612Z,544.0000
2023-04-16T07:31:04.921Z,543.9231
2023-04-16T07:32:07.307Z,543.0000
2023-04-16T07:33:09.604Z,541.4615
2023-04-16T07:34:11.932Z,538.3846
2023-04-16T07:35:14.278Z,534.0000
2023-04-16T07:36:16.573Z,531.6923
2023-04-16T07:37:18.914Z,529.0769
2023-04-16T07:38:21.245Z,527.6154
2023-04-16T07:39:23.577Z,525.4167
2023-04-16T07:40:25.917Z,522.0000
2023-04-16T07:41:28.257Z,519.3846
2023-04-16T07:42:30.579Z,516.5385
2023-04-16T07:43:32.904Z,515.0769
2023-04-16T07:44:35.246Z,517.8461
2023-04-16T07:45:37.666Z,517.5385
2023-04-16T07:46:46.893Z,520.6154
2023-04-16T07:47:42.305Z,522.9091
2023-04-16T07:48:44.568Z,523.3846
2023-04-16T07:49:46.922Z,526.5385
2023-04-16T07:50:49.234Z,527.2308
2023-04-16T07:51:51.578Z,525.7692
2023-04-16T07:52:53.897Z,529.8461
2023-04-16T07:53:56.216Z,531.4615
2023-04-16T07:54:58.569Z,535.6154
2023-04-16T07:56:00.908Z,534.5385
2023-04-16T07:57:03.218Z,535.1539
2023-04-16T07:58:05.613Z,535.4615
2023-04-16T07:59:21.009Z,533.4615
2023-04-16T08:00:10.225Z,534.7273
2023-04-16T08:01:12.588Z,539.0769
2023-04-16T08:02:14.975Z,540.1539
2023-04-16T08:03:17.338Z,539.9231
2023-04-16T08:04:19.733Z,539.9231
2023-04-16T08:05:21.980Z,536.2308
2023-04-16T08:06:24.199Z,536.0769
2023-04-16T08:07:26.571Z,535.3846
2023-04-16T08:08:28.876Z,531.3077
2023-04-16T08:09:31.198Z,528.3846
2023-04-16T08:10:33.532Z,529.0000
2023-04-16T08:11:35.859Z,530.7692
2023-04-16T08:12:38.207Z,530.8461
2023-04-16T08:13:40.557Z,529.3077
2023-04-16T08:14:42.869Z,525.6923
2023-04-16T08:15:45.217Z,522.6923
2023-04-16T08:16:47.551Z,519.7692
2023-04-16T08:17:49.883Z,518.6154
2023-04-16T08:18:52.252Z,517.8461
2023-04-16T08:19:54.679Z,517.0000
2023-04-16T08:20:56.844Z,514.4615
2023-04-16T08:21:59.189Z,513.0000
2023-04-16T08:23:01.546Z,512.8461
2023-04-16T08:24:03.865Z,513.0000
2023-04-16T08:25:06.214Z,512.7692
2023-04-16T08:26:08.510Z,517.0769
2023-04-16T08:27:18.678Z,520.0769
2023-04-16T08:28:13.201Z,523.1818
2023-04-16T08:29:15.534Z,522.6154
2023-04-16T08:30:17.872Z,520.4615
2023-04-16T08:31:20.227Z,523.2308
2023-04-16T08:32:22.536Z,525.5000
2023-04-16T08:33:24.857Z,525.0769
2023-04-16T08:34:27.187Z,524.5385
2023-04-16T08:35:29.539Z,523.0000
2023-04-16T08:36:31.843Z,524.0769
2023-04-16T08:37:34.175Z,525.6154
2023-04-16T08:38:36.503Z,527.2308
2023-04-16T08:39:38.879Z,527.5385
2023-04-16T08:40:41.178Z,526.8461
2023-04-16T08:41:43.517Z,526.0000
2023-04-16T08:42:45.836Z,525.3846
2023-04-16T08:43:48.174Z,523.0769
2023-04-16T08:44:50.512Z,518.8461
2023-04-16T08:45:52.858Z,515.8461
2023-04-16T08:46:55.242Z,516.2308
2023-04-16T08:47:57.594Z,519.6154
2023-04-16T08:48:59.848Z,522.6154
2023-04-16T08:50:02.189Z,526.3846
2023-04-16T08:51:04.485Z,527.6154
2023-04-16T08:52:06.842Z,528.0769
2023-04-16T08:53:11.109Z,526.9167
2023-04-16T08:54:11.486Z,529.2500
2023-04-16T08:55:13.822Z,529.5385
2023-04-16T08:56:16.152Z,530.1539
2023-04-16T08:57:18.494Z,529.3846
2023-04-16T08:58:20.803Z,529.7692
2023-04-16T08:59:23.135Z,529.6154
2023-04-16T09:00:25.501Z,527.2308
2023-04-16T09:01:27.873Z,526.6923
2023-04-16T09:02:30.280Z,527.0769
2023-04-16T09:03:34.924Z,527.0833
2023-04-16T09:04:34.844Z,526.0833
2023-04-16T09:05:37.147Z,526.4615
2023-04-16T09:06:39.476Z,526.5385
2023-04-16T09:07:41.835Z,526.0000
2023-04-16T09:08:44.142Z,527.1539
2023-04-16T09:09:46.466Z,526.3077
2023-04-16T09:10:48.837Z,523.1539
2023-04-16T09:11:51.124Z,525.3846
2023-04-16T09:12:53.465Z,526.4615
2023-04-16T09:13:55.806Z,525.0000
2023-04-16T09:14:58.146Z,524.5385
2023-04-16T09:16:00.517Z,525.0000
2023-04-16T09:17:02.806Z,523.6154
2023-04-16T09:18:05.139Z,521.3077
2023-04-16T09:19:07.557Z,519.6154
2023-04-16T09:20:09.799Z,519.9231
2023-04-16T09:21:12.155Z,519.2308
2023-04-16T09:22:14.476Z,516.6923
2023-04-16T09:23:16.794Z,514.7692
2023-04-16T09:24:19.130Z,514.6154
2023-04-16T09:25:21.466Z,516.9231
2023-04-16T09:26:23.811Z,517.4615
2023-04-16T09:27:26.234Z,519.5385
2023-04-16T09:28:28.472Z,518.9231
2023-04-16T09:29:30.819Z,516.8461
2023-04-16T09:30:33.130Z,514.3846
2023-04-16T09:31:35.496Z,512.9231
2023-04-16T09:32:37.885Z,511.5385
2023-04-16T09:33:40.154Z,512.8461
2023-04-16T09:34:42.502Z,514.4615
2023-04-16T09:35:44.820Z,512.6923
2023-04-16T09:36:47.149Z,511.2308
2023-04-16T09:37:49.507Z,511.2308
2023-04-16T09:38:51.835Z,511.7692
2023-04-16T09:39:54.154Z,510.0769
2023-04-16T09:40:56.634Z,509.1538
2023-04-16T09:41:58.802Z,509.3846
2023-04-16T09:43:01.157Z,510.4615
2023-04-16T09:44:03.487Z,511.6923
2023-04-16T09:45:06.291Z,512.0000
2023-04-16T09:46:08.691Z,510.5833
2023-04-16T09:47:10.492Z,510.4167
2023-04-16T09:48:12.807Z,512.2308
2023-04-16T09:49:15.162Z,513.1539
2023-04-16T09:50:18.675Z,512.8461
2023-04-16T09:51:19.818Z,511.0833
2023-04-16T09:52:22.164Z,509.6923
2023-04-16T09:53:24.490Z,509.8462
2023-04-16T09:54:26.818Z,510.2308
2023-04-16T09:55:29.163Z,510.7692
2023-04-16T09:56:31.477Z,510.0000
2023-04-16T09:57:33.812Z,511.9231
2023-04-16T09:58:36.212Z,509.3846
2023-04-16T09:59:38.501Z,506.1538
2023-04-16T10:00:42.250Z,507.3077
2023-04-16T10:01:43.270Z,504.2500
2023-04-16T10:02:45.704Z,506.6923
2023-04-16T10:03:47.909Z,506.0000
2023-04-16T10:04:50.479Z,504.6154
2023-04-16T10:05:52.637Z,503.6667
2023-04-16T10:06:54.833Z,503.5385
2023-04-16T10:07:57.160Z,507.3846
2023-04-16T10:08:59.493Z,507.3846
2023-04-16T10:10:01.904Z,507.3846
2023-04-16T10:11:04.155Z,507.3077
2023-04-16T10:12:06.505Z,508.0000
2023-04-16T10:13:08.824Z,510.0769
2023-04-16T10:14:11.160Z,511.0000
2023-04-16T10:15:13.479Z,507.6923
2023-04-16T10:16:15.853Z,508.3846
2023-04-16T10:17:18.146Z,508.4615
2023-04-16T10:18:20.512Z,511.0000
2023-04-16T10:19:22.821Z,511.9231
2023-04-16T10:20:25.152Z,510.0000
2023-04-16T10:21:27.511Z,508.3077
2023-04-16T10:22:29.800Z,509.0769
2023-04-16T10:23:32.136Z,507.6923
2023-04-16T10:24:34.477Z,507.7692
2023-04-16T10:25:36.795Z,507.2308
2023-04-16T10:26:39.130Z,508.8462
2023-04-16T10:27:41.459Z,511.0000
2023-04-16T10:28:43.828Z,509.6923
2023-04-16T10:29:46.174Z,509.8462
2023-04-16T10:30:48.475Z,508.9231
2023-04-16T10:31:50.784Z,508.3077
2023-04-16T10:32:53.145Z,507.3846
2023-04-16T10:33:55.450Z,504.1538
2023-04-16T10:34:57.799Z,503.3077
2023-04-16T10:36:07.426Z,503.6154
2023-04-16T10:37:02.448Z,504.1818
2023-04-16T10:38:04.773Z,504.6154
2023-04-16T10:39:07.105Z,503.1538
2023-04-16T10:40:09.470Z,504.6923
2023-04-16T10:41:11.773Z,504.4615
2023-04-16T10:42:14.104Z,504.0769
2023-04-16T10:43:16.427Z,503.2308
2023-04-16T10:44:18.769Z,503.5385
2023-04-16T10:45:21.136Z,504.4615
2023-04-16T10:46:23.481Z,504.6923
2023-04-16T10:47:25.807Z,504.7692
2023-04-16T10:48:35.598Z,507.2308
2023-04-16T10:49:30.434Z,507.5454
2023-04-16T10:50:32.780Z,504.4615
2023-04-16T10:51:35.183Z,504.7692
2023-04-16T10:52:37.553Z,505.3077
2023-04-16T10:53:39.860Z,502.8462
2023-04-16T10:54:42.192Z,502.2308
2023-04-16T10:55:44.511Z,502.7692
2023-04-16T10:56:46.845Z,500.9231
2023-04-16T10:57:49.186Z,501.9231
2023-04-16T10:58:51.511Z,503.6154
2023-04-16T10:59:53.843Z,505.0769
2023-04-16T11:00:56.194Z,508.5385
2023-04-16T11:01:58.611Z,512.0769
2023-04-16T11:03:00.951Z,513.8461
2023-04-16T11:04:03.339Z,512.3077
2023-04-16T11:05:05.516Z,511.1538
2023-04-16T11:06:07.853Z,510.3846
2023-04-16T11:07:10.191Z,511.3077
2023-04-16T11:08:12.513Z,510.6154
2023-04-16T11:09:14.861Z,506.7692
2023-04-16T11:10:17.206Z,504.3846
2023-04-16T11:11:19.535Z,503.6923
2023-04-16T11:12:21.849Z,508.1538
2023-04-16T11:13:24.181Z,513.8461
2023-04-16T11:14:26.506Z,514.9231
2023-04-16T11:15:28.854Z,513.8461
2023-04-16T11:16:31.236Z,513.2308
2023-04-16T11:17:33.594Z,506.2308
2023-04-16T11:18:35.860Z,501.3846
2023-04-16T11:19:38.175Z,499.9091
2023-04-16T11:20:40.530Z,497.6154
2023-04-16T11:21:42.857Z,497.5385
2023-04-16T11:22:45.171Z,497.3077
2023-04-16T11:23:47.501Z,499.9231
2023-04-16T11:24:49.842Z,500.5385
2023-04-16T11:25:52.190Z,503.0000
2023-04-16T11:26:54.510Z,504.8462
2023-04-16T11:27:56.838Z,505.8462
2023-04-16T11:28:59.177Z,506.4615
2023-04-16T11:30:01.545Z,510.2308
2023-04-16T11:31:03.857Z,513.6154
2023-04-16T11:32:06.177Z,515.4615
2023-04-16T11:33:08.525Z,516.8461
2023-04-16T11:34:10.855Z,517.3846
2023-04-16T11:35:13.179Z,515.3846
2023-04-16T11:36:15.526Z,515.1539
2023-04-16T11:37:17.849Z,515.2308
2023-04-16T11:38:20.189Z,514.3846
2023-04-16T11:39:22.521Z,513.9231
2023-04-16T11:40:24.861Z,511.7692
2023-04-16T11:41:27.184Z,510.3846
2023-04-16T11:42:29.568Z,509.5385
2023-04-16T11:43:31.868Z,509.0000
2023-04-16T11:44:34.196Z,510.7692
2023-04-16T11:45:36.526Z,510.3846
2023-04-16T11:46:38.895Z,510.0000
2023-04-16T11:47:41.320Z,508.3077
2023-04-16T11:48:43.553Z,510.5000
2023-04-16T11:49:45.856Z,507.6154
2023-04-16T11:50:48.201Z,506.0000
2023-04-16T11:51:50.523Z,506.9231
2023-04-16T11:52:52.861Z,508.3077
2023-04-16T11:53:55.213Z,509.0000
2023-04-16T11:54:57.526Z,507.6923
2023-04-16T11:55:59.889Z,507.0769
2023-04-16T11:57:02.201Z,506.0769
2023-04-16T11:58:04.536Z,507.0000
2023-04-16T11:59:06.961Z,507.8462
2023-04-16T12:00:10.548Z,507.0000
2023-04-16T12:01:11.540Z,505.9167
2023-04-16T12:02:13.999Z,503.2308
2023-04-16T12:03:16.441Z,502.8462
2023-04-16T12:04:18.645Z,506.3333
2023-04-16T12:05:20.876Z,509.4615
2023-04-16T12:06:24.399Z,512.2308
2023-04-16T12:07:25.550Z,513.2500
2023-04-16T12:08:27.880Z,513.0000
2023-04-16T12:09:30.218Z,512.3077
2023-04-16T12:10:32.567Z,511.0769
2023-04-16T12:11:34.937Z,510.4615
2023-04-16T12:12:37.232Z,510.0769